createdAt,value
2017-10-31T00:09:39.202Z,87.02
2017-10-31T00:30:18.457Z,87.05
2017-10-31T00:50:55.899Z,86.23
2017-10-31T01:11:33.911Z,87.53
2017-10-31T01:32:11.030Z,87.24
2017-10-31T01:52:45.381Z,86.78
2017-10-31T02:13:18.498Z,85.37
2017-10-31T02:33:55.923Z,87.30
2017-10-31T02:54:39.185Z,87.50
2017-10-31T03:15:17.214Z,86.47
2017-10-31T03:35:51.886Z,86.50
2017-10-31T03:56:26.111Z,86.22
2017-10-31T04:17:03.359Z,86.18
2017-10-31T04:37:35.234Z,86.70
2017-10-31T04:58:13.577Z,86.15
2017-10-31T05:18:53.096Z,86.50
2017-10-31T05:39:26.890Z,86.78
2017-10-31T06:00:09.631Z,86.72
2017-10-31T06:20:45.448Z,87.76
2017-10-31T06:41:25.911Z,87.06
2017-10-31T07:01:59.346Z,86.60
2017-10-31T07:22:33.382Z,86.81
2017-10-31T07:43:06.832Z,85.38
2017-10-31T08:03:44.079Z,84.75
2017-10-31T08:24:23.350Z,84.84
2017-10-31T08:44:56.560Z,85.74
2017-10-31T09:05:31.861Z,87.98
2017-10-31T09:26:08.701Z,88.17
2017-10-31T09:46:48.889Z,89.38
2017-10-31T10:07:29.647Z,90.09
2017-10-31T10:28:06.499Z,88.45
2017-10-31T10:48:42.086Z,85.42
2017-10-31T11:09:17.042Z,76.00
2017-10-31T11:29:55.386Z,73.86
2017-10-31T11:50:31.576Z,68.71
2017-10-31T12:11:12.089Z,65.33
2017-10-31T12:31:50.108Z,63.53
2017-10-31T12:52:35.677Z,64.49
2017-10-31T13:13:10.488Z,65.04
2017-10-31T13:33:54.216Z,65.07
2017-10-31T13:54:34.236Z,65.68
2017-10-31T14:15:07.719Z,64.95
2017-10-31T14:35:42.948Z,68.23
2017-10-31T14:56:17.169Z,69.92
2017-10-31T15:16:58.096Z,68.90
2017-10-31T15:37:37.358Z,69.00
2017-10-31T15:58:10.482Z,73.82
2017-10-31T16:18:45.161Z,76.51
2017-10-31T16:39:19.386Z,77.41
2017-10-31T16:59:55.373Z,79.11
2017-10-31T17:20:34.905Z,79.85
2017-10-31T17:41:31.402Z,79.68
2017-10-31T17:53:12.502Z,80.04
2017-10-31T17:55:42.114Z,79.99
2017-10-31T17:58:10.497Z,80.50
2017-10-31T18:00:40.567Z,80.33
2017-10-31T18:03:11.160Z,80.43
2017-10-31T18:05:40.324Z,80.36
2017-10-31T18:08:08.700Z,80.12
2017-10-31T18:10:37.780Z,80.24
2017-10-31T18:13:06.131Z,80.32
2017-10-31T18:15:34.570Z,79.95
2017-10-31T18:18:02.949Z,79.87
2017-10-31T18:20:31.257Z,79.53
2017-10-31T18:22:59.632Z,79.53
2017-10-31T18:25:28.723Z,80.48
2017-10-31T18:27:57.070Z,80.54
2017-10-31T18:30:26.169Z,80.20
2017-10-31T18:32:55.291Z,80.00
2017-10-31T18:35:23.604Z,80.22
2017-10-31T18:37:51.953Z,80.24
2017-10-31T18:40:20.296Z,79.81
2017-10-31T18:42:49.631Z,79.89
2017-10-31T18:45:17.958Z,79.54
2017-10-31T18:47:46.290Z,79.28
2017-10-31T18:50:14.648Z,79.93
2017-10-31T18:52:43.656Z,80.18
2017-10-31T18:55:12.581Z,80.22
2017-10-31T18:57:41.035Z,80.05
2017-10-31T19:15:25.590Z,80.97
2017-10-31T19:17:55.116Z,80.70
2017-10-31T19:20:24.318Z,80.82
2017-10-31T19:22:52.654Z,80.84
2017-10-31T19:25:21.078Z,81.09
2017-10-31T19:27:49.410Z,80.69
2017-10-31T19:30:18.284Z,81.09
2017-10-31T19:32:46.794Z,80.77
2017-10-31T19:35:15.183Z,81.01
2017-10-31T19:37:43.530Z,81.04
2017-10-31T19:40:11.988Z,80.97
2017-10-31T19:42:40.367Z,80.65
2017-10-31T19:45:10.226Z,80.88
2017-10-31T19:47:39.830Z,81.05
2017-10-31T19:50:09.545Z,80.84
2017-10-31T19:52:39.036Z,80.79
2017-10-31T19:55:07.425Z,80.96
2017-10-31T19:57:35.776Z,80.50
2017-10-31T20:00:06.290Z,79.95
2017-10-31T20:02:34.709Z,80.06
2017-10-31T20:05:04.054Z,80.51
2017-10-31T20:07:32.433Z,80.65
2017-10-31T20:10:09.338Z,80.76
2017-10-31T20:12:38.141Z,81.27
2017-10-31T20:15:06.477Z,81.27
2017-10-31T20:17:34.817Z,80.81
2017-10-31T20:20:04.131Z,80.34
2017-10-31T20:22:32.507Z,80.33
2017-10-31T20:25:00.918Z,80.14
2017-10-31T20:27:31.444Z,80.17
2017-10-31T20:29:59.808Z,80.66
2017-10-31T20:32:28.182Z,80.72
2017-10-31T20:34:56.548Z,80.78
2017-10-31T20:37:25.898Z,80.53
2017-10-31T20:39:54.242Z,80.19
2017-10-31T20:42:22.626Z,80.40
2017-10-31T20:44:50.981Z,80.44
2017-10-31T20:47:20.558Z,80.29
2017-10-31T20:49:49.884Z,80.66
2017-10-31T20:52:18.294Z,80.62
2017-10-31T20:54:46.703Z,80.75
2017-10-31T20:57:15.018Z,80.63
2017-10-31T20:59:44.353Z,80.93
2017-10-31T21:02:12.707Z,80.74
2017-10-31T21:04:41.124Z,81.10
2017-10-31T21:07:09.489Z,80.69
2017-10-31T21:09:37.896Z,80.13
2017-10-31T21:12:06.651Z,80.33
2017-10-31T21:14:34.995Z,80.30
2017-10-31T21:17:03.329Z,80.61
2017-10-31T21:19:31.704Z,80.34
2017-10-31T21:22:00.103Z,80.29
2017-10-31T21:24:28.456Z,80.06
2017-10-31T21:26:57.756Z,80.12
2017-10-31T21:29:28.532Z,80.31
2017-10-31T21:31:56.975Z,80.03
2017-10-31T21:34:26.270Z,79.70
2017-10-31T21:36:55.580Z,79.56
2017-10-31T21:39:24.903Z,79.08
2017-10-31T21:41:53.247Z,79.11
2017-10-31T21:44:22.588Z,78.94
2017-10-31T21:46:50.946Z,78.94
2017-10-31T21:49:19.357Z,79.00
2017-10-31T21:51:47.683Z,79.62
2017-10-31T21:54:16.116Z,80.21
2017-10-31T21:56:44.502Z,80.59
2017-10-31T21:59:12.831Z,80.15
2017-10-31T22:01:42.202Z,79.93
2017-10-31T22:04:10.549Z,79.72
2017-10-31T22:06:38.897Z,79.56
2017-10-31T22:09:08.211Z,79.49
2017-10-31T22:11:36.594Z,79.38
2017-10-31T22:14:04.956Z,79.04
2017-10-31T22:16:34.681Z,79.33
2017-10-31T22:19:03.000Z,78.88
2017-10-31T22:21:31.317Z,78.66
2017-10-31T22:24:00.633Z,79.20
2017-10-31T22:26:29.907Z,79.88
2017-10-31T22:28:58.344Z,79.87
2017-10-31T22:31:26.675Z,80.03
2017-10-31T22:33:55.346Z,80.23
2017-10-31T22:36:23.802Z,79.85
2017-10-31T22:38:52.137Z,79.73
2017-10-31T22:41:21.251Z,80.01
2017-10-31T22:43:49.573Z,80.11
2017-10-31T22:46:17.958Z,80.34
2017-10-31T22:48:46.297Z,80.49
2017-10-31T22:51:14.700Z,80.35
2017-10-31T22:53:43.056Z,80.92
2017-10-31T22:56:11.371Z,81.38
2017-10-31T22:58:41.286Z,81.33
2017-10-31T23:01:10.051Z,81.43
2017-10-31T23:03:38.392Z,80.96
2017-10-31T23:06:07.478Z,81.07
2017-10-31T23:08:35.812Z,81.24
2017-10-31T23:11:04.138Z,81.20
2017-10-31T23:13:32.452Z,80.97
2017-10-31T23:16:00.788Z,80.84
2017-10-31T23:18:29.116Z,81.84
2017-10-31T23:20:57.779Z,81.86
2017-10-31T23:23:26.121Z,81.56
2017-10-31T23:25:54.439Z,81.77
2017-10-31T23:28:23.543Z,81.49
2017-10-31T23:30:52.678Z,81.78
2017-10-31T23:33:22.264Z,81.59
2017-10-31T23:35:50.574Z,81.45
2017-10-31T23:38:18.925Z,81.83
2017-10-31T23:40:47.272Z,81.83
2017-10-31T23:43:15.597Z,81.74
2017-10-31T23:45:43.989Z,81.59
2017-10-31T23:48:12.303Z,81.99
2017-10-31T23:50:41.411Z,82.02
2017-10-31T23:53:09.720Z,82.71
2017-10-31T23:55:38.053Z,82.24
2017-10-31T23:58:06.407Z,82.38
